ADDS METAR Data INFO
IDs: Format: Raw Decoded Include TAF

Data at: 1352 UTC 23 Apr 2018

KFPK 231335Z AUTO 09005KT 10SM CLR 11/M01 A3023 RMK AO2 T01101013
KFPK 231315Z AUTO 07006KT 10SM CLR 10/M02 A3024 RMK AO2 T01011019
KFPK 231255Z AUTO 06005KT 10SM CLR 09/M02 A3023 RMK AO2 T00901025
KFPK 231235Z AUTO 05006KT 10SM CLR 08/M03 A3024 RMK AO2 T00811029
KFPK 231215Z AUTO 05005KT 10SM CLR 07/M03 A3024 RMK AO2 T00671031
KFPK 231155Z AUTO 05005KT 10SM CLR 06/M03 A3025 RMK AO2 T00581028 10058 20026
KFPK 231135Z AUTO 05004KT 10SM CLR 05/M04 A3026 RMK AO2 T00461036
KFPK 231115Z AUTO 04004KT 10SM CLR 03/M04 A3025 RMK AO2 T00331041
KFPK 231055Z AUTO 00000KT 10SM CLR 04/M05 A3025 RMK AO2 T00371046
KFPK 231035Z AUTO 05003KT 10SM CLR 04/M04 A3024 RMK AO2 T00351045
KFPK 231015Z AUTO 06003KT 10SM CLR 04/M05 A3023 RMK AO2 T00411046
KFPK 230955Z AUTO 05003KT 10SM CLR 03/M04 A3023 RMK AO2 T00341044
KFPK 230935Z AUTO 06003KT 10SM CLR 05/M04 A3023 RMK AO2 T00461045
KFPK 230915Z AUTO 05004KT 10SM CLR 05/M04 A3024 RMK AO2 T00451043
KFPK 230855Z AUTO 07003KT 10SM CLR 05/M04 A3024 RMK AO2 T00461040
KFPK 230835Z AUTO 06003KT 10SM CLR 05/M04 A3025 RMK AO2 T00451040
KFPK 230815Z AUTO 07003KT 10SM CLR 05/M04 A3025 RMK AO2 T00471037
KFPK 230755Z AUTO 07004KT 10SM CLR 05/M04 A3025 RMK AO2 T00501038
KFPK 230735Z AUTO 07004KT 10SM CLR 05/M04 A3026 RMK AO2 T00471039
KFPK 230715Z AUTO 07003KT 10SM CLR 06/M04 A3026 RMK AO2 T00581040
KFPK 230655Z AUTO 06006KT 10SM CLR 05/M04 A3026 RMK AO2 T00501038
KFPK 230635Z AUTO 05003KT 10SM CLR 06/M04 A3026 RMK AO2 T00551042
KFPK 230615Z AUTO 05004KT 10SM CLR 05/M03 A3027 RMK AO2 T00471034
KFPK 230555Z AUTO 00000KT 10SM CLR 05/M01 A3028 RMK AO2 T00461014 10143 20026 401751017
KFPK 230535Z AUTO 00000KT 10SM CLR 08/M05 A3028 RMK AO2 T00751050
KFPK 230515Z AUTO 07003KT 10SM CLR 06/M04 A3027 RMK AO2 T00591041
KFPK 230455Z AUTO 00000KT 10SM CLR 04/M02 A3028 RMK AO2 T00361016
KFPK 230435Z AUTO 00000KT 10SM CLR 03/M02 A3027 RMK AO2 T00271024
KFPK 230415Z AUTO 07003KT 10SM CLR 06/M04 A3028 RMK AO2 T00631045
KFPK 230355Z AUTO 07003KT 10SM CLR 07/M05 A3029 RMK AO2 T00701048
KFPK 230335Z AUTO 00000KT 10SM CLR 06/M03 A3030 RMK AO2 T00551028
KFPK 230315Z AUTO 00000KT 10SM CLR 09/M05 A3030 RMK AO2 T00861047
KFPK 230255Z AUTO 00000KT 10SM CLR 10/M06 A3031 RMK AO2 T01011058
KFPK 230235Z AUTO 00000KT 10SM CLR 11/M06 A3031 RMK AO2 T01051058
KFPK 230215Z AUTO 12003KT 10SM CLR 10/M06 A3031 RMK AO2 T00991058
KFPK 230155Z AUTO 10003KT 10SM CLR 10/M05 A3030 RMK AO2 T01041051
KFPK 230135Z AUTO 10003KT 10SM CLR 11/M06 A3030 RMK AO2 T01081059
KFPK 230115Z AUTO 11003KT 10SM CLR 12/M06 A3030 RMK AO2 T01161062
KFPK 230055Z AUTO 10004KT 10SM CLR 13/M06 A3029 RMK AO2 T01251063
KFPK 230035Z AUTO 10004KT 10SM CLR 13/M06 A3029 RMK AO2 T01301062
KFPK 230015Z AUTO 09005KT 10SM CLR 14/M06 A3028 RMK AO2 T01381059
KFPK 222355Z AUTO 08008KT 10SM CLR 15/M06 A3028 RMK AO2 T01451060 10175 20145
KFPK 222335Z AUTO 07009KT 10SM CLR 15/M06 A3028 RMK AO2 T01501058
KFPK 222315Z AUTO 07008KT 10SM CLR 16/M05 A3028 RMK AO2 T01551052
KFPK 222255Z AUTO 08006KT 10SM CLR 16/M05 A3028 RMK AO2 T01611054
KFPK 222235Z AUTO 06009KT 10SM CLR 17/M05 A3028 RMK AO2 T01651046
KFPK 222215Z AUTO 07011G14KT 10SM CLR 17/M05 A3029 RMK AO2 T01671046
KFPK 222155Z AUTO 08009KT 10SM CLR 17/M05 A3029 RMK AO2 T01681049
KFPK 222135Z AUTO 07010G14KT 10SM CLR 17/M04 A3029 RMK AO2 T01701044
KFPK 222115Z AUTO 10008KT 10SM CLR 17/M04 A3029 RMK AO2 T01701043
KFPK 222055Z AUTO 08009G14KT 10SM CLR 17/M05 A3030 RMK AO2 T01701048
KFPK 222035Z AUTO 12008KT 10SM CLR 17/M05 A3030 RMK AO2 T01701046
KFPK 222015Z AUTO 06007KT 10SM CLR 17/M03 A3030 RMK AO2 T01681033
KFPK 221956Z AUTO 08008KT 060V120 10SM CLR 17/M03 A3032 RMK AO2 T01691028
KFPK 221935Z AUTO 09009G17KT 10SM CLR 17/M05 A3033 RMK AO2 T01651047
KFPK 221915Z AUTO 07011G15KT 10SM CLR 16/M04 A3034 RMK AO2 T01641041
KFPK 221855Z AUTO 06011G14KT 10SM CLR 16/M04 A3034 RMK AO2 T01621045
KFPK 221835Z AUTO 06008KT 10SM CLR 16/M04 A3035 RMK AO2 T01641044
KFPK 221815Z AUTO 10009G15KT 070V130 10SM CLR 16/M05 A3035 RMK AO2 T01601048
KFPK 221755Z AUTO 07007KT 10SM CLR 16/M04 A3036 RMK AO2 T01571043 10158 20015
KFPK 221735Z AUTO 06008G15KT 10SM CLR 15/M05 A3036 RMK AO2 T01491047
KFPK 221715Z AUTO 08010KT 10SM CLR 16/M04 A3037 RMK AO2 T01551043
KFPK 221655Z AUTO 05007G15KT 10SM CLR 15/M04 A3038 RMK AO2 T01491043
KFPK 221635Z AUTO 09009KT 10SM CLR 15/M04 A3038 RMK AO2 T01461039
KFPK 221615Z AUTO 14009KT 10SM CLR 14/M03 A3039 RMK AO2 T01431032
KFPK 221555Z AUTO 10006KT 10SM CLR 14/M03 A3039 RMK AO2 T01401033
KFPK 221535Z AUTO 07009KT 060V130 10SM CLR 14/M04 A3040 RMK AO2 T01381038
KFPK 221515Z AUTO 13005KT 10SM CLR 13/M04 A3041 RMK AO2 T01321042
KFPK 221455Z AUTO 15005KT 10SM CLR 13/M04 A3040 RMK AO2 T01301042
KFPK 221435Z AUTO 13004KT 10SM CLR 12/M04 A3040 RMK AO2 T01231042
KFPK 221415Z AUTO 12006KT 10SM CLR 11/M05 A3040 RMK AO2 T01121046
KFPK 221355Z AUTO 11006KT 10SM CLR 11/M04 A3040 RMK AO2 T01121038
KFPK 221335Z AUTO 09006KT 10SM CLR 10/M04 A3040 RMK AO2 T00961038
KFPK 221315Z AUTO 00000KT 10SM CLR 09/M03 A3040 RMK AO2 T00861034
KFPK 221255Z AUTO 00000KT 10SM CLR 07/M01 A3040 RMK AO2 T00701013
KFPK 221235Z AUTO 00000KT 10SM CLR 05/01 A3040 RMK AO2 T00470005
KFPK 221216Z AUTO 00000KT 10SM CLR 03/00 A3039 RMK AO2 T00260000
KFPK 221155Z AUTO 00000KT 10SM CLR 01/M02 A3039 RMK AO2 T00111016 10034 21017
KFPK 221135Z AUTO 00000KT 10SM CLR 00/M03 A3039 RMK AO2 T00011027
KFPK 221115Z AUTO 00000KT 10SM CLR 00/M02 A3039 RMK AO2 T10021023
KFPK 221055Z AUTO 00000KT 10SM CLR M01/M03 A3039 RMK AO2 T10081027
KFPK 221035Z AUTO 00000KT 10SM CLR M01/M03 A3039 RMK AO2 T10071030
KFPK 221015Z AUTO 00000KT 10SM CLR M01/M03 A3038 RMK AO2 T10081026
KFPK 220955Z AUTO 00000KT 10SM CLR 00/M02 A3037 RMK AO2 T10031022
KFPK 220935Z AUTO 00000KT 10SM CLR 00/M03 A3037 RMK AO2 T10041026
KFPK 220915Z AUTO 00000KT 10SM CLR 00/M03 A3036 RMK AO2 T10011029
KFPK 220855Z AUTO 00000KT 10SM CLR 01/M03 A3036 RMK AO2 T00071026
KFPK 220835Z AUTO 00000KT 10SM CLR 01/M02 A3037 RMK AO2 T00071023
KFPK 220815Z AUTO 00000KT 10SM CLR 01/M02 A3036 RMK AO2 T00101021
KFPK 220755Z AUTO 00000KT 10SM CLR 01/M02 A3036 RMK AO2 T00071024
KFPK 220735Z AUTO 00000KT 10SM CLR 02/M02 A3037 RMK AO2 T00201017
KFPK 220715Z AUTO 00000KT 10SM CLR 02/M01 A3037 RMK AO2 T00221011
KFPK 220655Z AUTO 00000KT 10SM CLR 02/M02 A3037 RMK AO2 T00201022
KFPK 220635Z AUTO 00000KT 10SM CLR 03/M02 A3038 RMK AO2 T00311016
KFPK 220615Z AUTO 00000KT 10SM CLR 03/M01 A3038 RMK AO2 T00331007
KFPK 220555Z AUTO 00000KT 10SM CLR 04/M01 A3038 RMK AO2 T00351008 10124 20030 401461015
KFPK 220535Z AUTO 00000KT 10SM CLR 04/M01 A3038 RMK AO2 T00421009
KFPK 220515Z AUTO 00000KT 10SM CLR 05/M01 A3038 RMK AO2 T00471009
KFPK 220455Z AUTO 00000KT 10SM CLR 04/00 A3038 RMK AO2 T00371004
KFPK 220435Z AUTO 00000KT 10SM CLR 04/01 A3038 RMK AO2 T00380010
KFPK 220415Z AUTO 00000KT 10SM CLR 03/00 A3038 RMK AO2 T00310000
KFPK 220355Z AUTO 00000KT 10SM CLR 03/00 A3038 RMK AO2 T00320000
KFPK 220335Z AUTO 00000KT 10SM CLR 04/00 A3038 RMK AO2 T00440000
KFPK 220315Z AUTO 00000KT 10SM CLR 05/00 A3038 RMK AO2 T00450000
KFPK 220255Z AUTO 00000KT 10SM CLR 05/00 A3038 RMK AO2 T00511003
KFPK 220235Z AUTO 00000KT 10SM CLR 06/00 A3037 RMK AO2 T00611005
KFPK 220215Z AUTO 00000KT 10SM CLR 08/M02 A3037 RMK AO2 T00761021
KFPK 220155Z AUTO 00000KT 10SM CLR 08/M02 A3037 RMK AO2 T00761020